Time;durP1;ratioP1;P1;durP2;ratioP2;P2;SDS_P1;SDS_P2;PMS_P1;PMS_P2;Temp;Humidity;BMP_temperature;BMP_pressure;BME280_temperature;BME280_humidity;BME280_pressure;Samples;Min_cycle;Max_cycle;Signal;HPM_P1;HPM_P2
2022/07/17 00:01:19;;;;;;;3.20;2.90;;;13.30;99.90;;;;;;4992970;28;20049;-84
2022/07/17 00:03:45;;;;;;;4.60;3.53;;;13.30;99.90;;;;;;5011529;28;20034;-84
2022/07/17 00:06:11;;;;;;;3.15;2.85;;;13.30;99.90;;;;;;5011544;28;20034;-84
2022/07/17 00:08:36;;;;;;;3.38;2.95;;;13.40;99.90;;;;;;5010986;28;20037;-84
2022/07/17 00:11:02;;;;;;;6.38;3.20;;;13.40;99.90;;;;;;5009886;28;20058;-84
2022/07/17 00:13:28;;;;;;;7.07;2.97;;;13.40;99.90;;;;;;5010235;28;20037;-81
2022/07/17 00:15:54;;;;;;;5.18;3.03;;;13.30;99.90;;;;;;5011654;28;20218;-82
2022/07/17 00:18:20;;;;;;;3.95;3.28;;;13.20;99.90;;;;;;4994029;28;20026;-83
2022/07/17 00:20:46;;;;;;;5.60;2.78;;;13.20;99.90;;;;;;4993699;28;20076;-82
2022/07/17 00:23:11;;;;;;;5.63;3.03;;;13.10;99.90;;;;;;5010852;28;20037;-83
2022/07/17 00:25:37;;;;;;;7.35;3.20;;;12.90;99.90;;;;;;4993806;28;20412;-81
2022/07/17 00:28:04;;;;;;;6.68;2.95;;;13.00;99.90;;;;;;5010951;28;20390;-82
2022/07/17 00:30:29;;;;;;;10.43;2.60;;;13.00;99.90;;;;;;4993793;28;20474;-83
2022/07/17 00:32:55;;;;;;;3.97;2.95;;;13.00;99.90;;;;;;5010004;28;20109;-84
2022/07/17 00:35:22;;;;;;;3.40;2.80;;;13.00;99.90;;;;;;5011336;28;20022;-82
2022/07/17 00:37:48;;;;;;;4.35;2.92;;;12.90;99.90;;;;;;4992777;28;20460;-83
2022/07/17 00:40:19;;;;;;;3.50;2.63;;;12.90;99.90;;;;;;4993514;28;20026;-84
2022/07/17 00:42:44;;;;;;;4.35;3.03;;;12.90;99.90;;;;;;4992954;28;20315;-84
2022/07/17 00:45:12;;;;;;;5.80;3.17;;;12.90;99.90;;;;;;4993466;28;20038;-83
2022/07/17 00:47:59;;;;;;;7.10;3.22;;;12.80;99.90;;;;;;4993279;28;20436;-83
2022/07/17 00:50:38;;;;;;;4.95;2.60;;;12.80;99.90;;;;;;4993438;28;20385;-83
2022/07/17 00:53:04;;;;;;;8.73;3.30;;;12.70;99.90;;;;;;4992243;28;20549;-81
2022/07/17 00:55:31;;;;;;;3.72;3.03;;;12.70;99.90;;;;;;4993181;28;20029;-82
2022/07/17 00:58:00;;;;;;;11.10;3.00;;;12.60;99.90;;;;;;5010860;28;20528;-82
2022/07/17 01:00:26;;;;;;;6.43;2.83;;;12.60;99.90;;;;;;4993259;28;20033;-81
2022/07/17 01:02:53;;;;;;;4.38;3.25;;;12.50;99.90;;;;;;5010505;28;20108;-81
2022/07/17 01:05:21;;;;;;;6.75;2.90;;;12.50;99.90;;;;;;5010363;28;20030;-83
2022/07/17 01:07:47;;;;;;;9.45;3.30;;;12.40;99.90;;;;;;5010262;28;20022;-83
2022/07/17 01:10:18;;;;;;;3.25;2.95;;;12.30;99.90;;;;;;4992704;28;20025;-83
2022/07/17 01:12:48;;;;;;;9.27;3.92;;;12.40;99.90;;;;;;5013071;28;20026;-81
2022/07/17 01:15:15;;;;;;;10.85;3.42;;;12.30;99.90;;;;;;4996973;28;20018;-83
2022/07/17 01:17:40;;;;;;;3.65;3.20;;;12.30;99.90;;;;;;5014869;28;20425;-83
2022/07/17 01:20:08;;;;;;;6.50;3.58;;;12.30;99.90;;;;;;5014551;28;20242;-83
2022/07/17 01:22:45;;;;;;;4.03;3.15;;;12.30;99.90;;;;;;5014692;28;20444;-82
2022/07/17 01:25:12;;;;;;;4.25;3.42;;;12.30;99.90;;;;;;5014418;28;20444;-80
2022/07/17 01:27:39;;;;;;;9.77;3.42;;;12.30;99.90;;;;;;5014331;28;20371;-81
2022/07/17 01:30:06;;;;;;;6.90;3.67;;;12.30;99.90;;;;;;5014527;28;20049;-81
2022/07/17 01:32:39;;;;;;;4.25;3.33;;;12.20;99.90;;;;;;5014335;28;20104;-83
2022/07/17 01:35:07;;;;;;;6.72;3.72;;;12.20;99.90;;;;;;5014108;28;20026;-81
2022/07/17 01:37:33;;;;;;;3.15;2.92;;;12.10;99.90;;;;;;5014387;28;20018;-82
2022/07/17 01:39:59;;;;;;;3.85;3.45;;;12.10;99.90;;;;;;4996609;28;20551;-81
2022/07/17 01:42:26;;;;;;;5.20;3.30;;;12.00;99.90;;;;;;5014336;28;20034;-80
2022/07/17 01:44:53;;;;;;;6.35;3.50;;;12.00;99.90;;;;;;4996512;28;20030;-83
2022/07/17 01:47:19;;;;;;;5.68;3.35;;;12.00;99.90;;;;;;5014191;28;20033;-82
2022/07/17 01:49:51;;;;;;;4.30;3.28;;;12.00;99.90;;;;;;4995903;28;20397;-81
2022/07/17 01:52:17;;;;;;;10.48;3.55;;;12.00;99.90;;;;;;5012703;28;20117;-83
2022/07/17 01:54:43;;;;;;;5.10;3.35;;;11.90;99.90;;;;;;4996249;28;20633;-82
2022/07/17 01:57:10;;;;;;;6.03;3.05;;;11.90;99.90;;;;;;4996469;28;20034;-81
2022/07/17 01:59:37;;;;;;;5.07;3.47;;;11.80;99.90;;;;;;5013387;28;20018;-81
2022/07/17 02:02:04;;;;;;;5.20;3.58;;;11.80;99.90;;;;;;4995470;28;20127;-83
2022/07/17 02:04:31;;;;;;;12.13;3.38;;;11.80;99.90;;;;;;4995910;28;20025;-81
2022/07/17 02:06:56;;;;;;;6.18;3.05;;;11.80;99.90;;;;;;4997857;28;20484;-82
2022/07/17 02:09:23;;;;;;;8.35;4.45;;;11.80;99.90;;;;;;4996482;28;20029;-82
2022/07/17 02:11:49;;;;;;;8.50;3.65;;;11.80;99.90;;;;;;5013744;28;20704;-83
2022/07/17 02:14:14;;;;;;;15.15;5.70;;;11.80;99.90;;;;;;5013746;28;20025;-83
2022/07/17 02:16:40;;;;;;;10.95;3.55;;;11.70;99.90;;;;;;5013626;28;20103;-82
2022/07/17 02:19:06;;;;;;;13.05;3.70;;;11.60;99.90;;;;;;5013639;28;20022;-81
2022/07/17 02:21:32;;;;;;;6.43;3.65;;;11.60;99.90;;;;;;5011446;28;20106;-81
2022/07/17 02:23:57;;;;;;;4.90;3.28;;;11.60;99.90;;;;;;4992834;28;20033;-81
2022/07/17 02:26:23;;;;;;;6.22;3.72;;;11.60;99.90;;;;;;4994054;28;20041;-81
2022/07/17 02:28:49;;;;;;;7.65;3.10;;;11.60;99.90;;;;;;4993807;28;20030;-83
2022/07/17 02:31:14;;;;;;;9.38;3.55;;;11.60;99.90;;;;;;4993739;28;20050;-82
2022/07/17 02:33:40;;;;;;;13.13;3.25;;;11.60;99.90;;;;;;4993657;28;20029;-81
2022/07/17 02:36:06;;;;;;;11.82;3.20;;;11.50;99.90;;;;;;4993639;28;20142;-81
2022/07/17 02:38:33;;;;;;;6.43;3.58;;;11.40;99.90;;;;;;5013243;28;20022;-81
2022/07/17 02:40:58;;;;;;;6.30;3.17;;;11.30;99.90;;;;;;5013246;28;20505;-81
2022/07/17 02:43:24;;;;;;;13.30;3.47;;;11.40;99.90;;;;;;5013134;28;20030;-80
2022/07/17 02:45:50;;;;;;;7.13;3.28;;;11.40;99.90;;;;;;4995475;28;20026;-82
2022/07/17 02:48:15;;;;;;;9.82;4.43;;;11.30;99.90;;;;;;5011730;28;20022;-82
2022/07/17 02:50:41;;;;;;;7.00;3.35;;;11.30;99.90;;;;;;4995245;28;20018;-83
2022/07/17 02:53:07;;;;;;;5.07;3.45;;;11.30;99.90;;;;;;4994530;28;20103;-81
2022/07/17 02:55:32;;;;;;;4.50;3.13;;;11.30;99.90;;;;;;4993331;28;20530;-80
2022/07/17 02:57:58;;;;;;;7.50;3.25;;;11.30;99.90;;;;;;4991915;28;20022;-83
2022/07/17 03:00:26;;;;;;;8.40;3.90;;;11.20;99.90;;;;;;4993327;28;20085;-81
2022/07/17 03:02:53;;;;;;;14.18;4.20;;;11.30;99.90;;;;;;5009976;28;20129;-81
2022/07/17 03:05:19;;;;;;;10.52;3.45;;;11.20;99.90;;;;;;5012661;28;20029;-82
2022/07/17 03:07:45;;;;;;;4.43;3.30;;;11.20;99.90;;;;;;4977703;28;20033;-82
2022/07/17 03:10:12;;;;;;;4.82;3.30;;;11.10;99.90;;;;;;4993158;28;20022;-82
2022/07/17 03:12:38;;;;;;;4.57;3.97;;;11.20;99.90;;;;;;4975495;28;20054;-81
2022/07/17 03:15:05;;;;;;;10.95;3.88;;;11.10;99.90;;;;;;4974997;28;20023;-81
2022/07/17 03:17:31;;;;;;;10.60;4.13;;;11.10;99.90;;;;;;4993188;28;20019;-80
2022/07/17 03:19:56;;;;;;;5.97;3.63;;;11.10;99.90;;;;;;4992982;28;20029;-82
2022/07/17 03:22:22;;;;;;;7.28;4.07;;;11.10;99.90;;;;;;5008634;28;20120;-81
2022/07/17 03:24:48;;;;;;;10.90;3.72;;;11.00;99.90;;;;;;5012372;28;20036;-82
2022/07/17 03:27:14;;;;;;;11.73;3.38;;;11.10;99.90;;;;;;5012459;28;20402;-81
2022/07/17 03:29:39;;;;;;;8.18;4.00;;;11.10;99.90;;;;;;5012253;28;20121;-82
2022/07/17 03:32:05;;;;;;;9.07;3.97;;;11.00;99.90;;;;;;5012442;28;20030;-81
2022/07/17 03:34:31;;;;;;;4.50;4.00;;;11.00;99.90;;;;;;5012045;28;20077;-82
2022/07/17 03:36:57;;;;;;;10.23;4.10;;;11.00;99.90;;;;;;5011114;28;20093;-82
2022/07/17 03:39:22;;;;;;;10.35;4.25;;;11.00;99.90;;;;;;4994335;28;20026;-80
2022/07/17 03:41:48;;;;;;;10.70;3.83;;;11.00;99.90;;;;;;5011843;28;20022;-82
2022/07/17 03:44:15;;;;;;;9.15;4.18;;;10.90;99.90;;;;;;5012160;28;20029;-83
2022/07/17 03:46:40;;;;;;;5.95;3.97;;;10.90;99.90;;;;;;5011626;28;20029;-81
2022/07/17 03:49:06;;;;;;;5.78;4.35;;;10.90;99.90;;;;;;5011981;28;20386;-82
2022/07/17 03:51:33;;;;;;;9.68;4.05;;;11.00;99.90;;;;;;5011724;28;20022;-80
2022/07/17 03:53:58;;;;;;;19.90;4.22;;;11.10;99.90;;;;;;4994338;28;20034;-81
2022/07/17 03:56:24;;;;;;;12.48;3.97;;;11.00;99.90;;;;;;4992031;28;20381;-82
2022/07/17 03:58:50;;;;;;;6.50;4.15;;;11.10;99.90;;;;;;4992075;28;20027;-81
2022/07/17 04:01:15;;;;;;;8.05;3.67;;;11.20;99.90;;;;;;4995944;28;20030;-81
2022/07/17 04:03:41;;;;;;;6.40;3.88;;;11.20;99.90;;;;;;5011679;28;20014;-81
2022/07/17 04:06:07;;;;;;;9.27;4.90;;;11.30;99.90;;;;;;5011695;28;20049;-81
2022/07/17 04:08:32;;;;;;;13.88;3.75;;;11.40;99.90;;;;;;5010027;28;20662;-80
2022/07/17 04:10:58;;;;;;;5.47;4.10;;;11.40;99.90;;;;;;5011507;28;20356;-80
2022/07/17 04:13:24;;;;;;;9.13;3.42;;;11.50;99.90;;;;;;5011809;28;20028;-81
2022/07/17 04:15:52;;;;;;;9.00;3.85;;;11.60;99.90;;;;;;5010105;28;20084;-81
2022/07/17 04:18:19;;;;;;;12.15;4.10;;;11.60;99.90;;;;;;5011033;28;20029;-82
2022/07/17 04:20:45;;;;;;;14.32;4.00;;;11.70;99.90;;;;;;5011560;28;20018;-82
2022/07/17 04:23:11;;;;;;;10.15;5.13;;;11.70;99.90;;;;;;5011348;28;20029;-81
2022/07/17 04:25:37;;;;;;;8.52;4.03;;;11.80;99.90;;;;;;5011519;28;20433;-82
2022/07/17 04:28:03;;;;;;;8.00;3.55;;;11.90;99.90;;;;;;5010649;28;20026;-82
2022/07/17 04:30:28;;;;;;;15.27;3.90;;;12.00;99.90;;;;;;5011268;28;20060;-82
2022/07/17 04:32:54;;;;;;;4.55;4.05;;;12.10;99.90;;;;;;5010560;28;20057;-80
2022/07/17 04:35:20;;;;;;;5.75;4.05;;;12.20;99.90;;;;;;5011328;28;20026;-80
2022/07/17 04:37:45;;;;;;;4.13;3.72;;;12.30;99.90;;;;;;5009796;28;20033;-82
2022/07/17 04:40:11;;;;;;;4.38;3.67;;;12.40;99.90;;;;;;5011045;28;20108;-80
2022/07/17 04:42:37;;;;;;;4.45;3.53;;;12.50;99.90;;;;;;4993578;28;20072;-83
2022/07/17 04:45:05;;;;;;;7.00;4.18;;;12.60;99.90;;;;;;5009616;28;20018;-82
2022/07/17 04:47:30;;;;;;;9.10;4.45;;;12.80;99.90;;;;;;4992728;28;20029;-81
2022/07/17 04:49:57;;;;;;;5.30;3.88;;;12.80;99.90;;;;;;5009644;28;20405;-81
2022/07/17 04:52:22;;;;;;;11.65;3.58;;;12.90;99.90;;;;;;5010977;28;20430;-81
2022/07/17 04:54:48;;;;;;;5.05;3.65;;;13.10;99.90;;;;;;5010623;28;20057;-82
2022/07/17 04:57:14;;;;;;;12.98;4.05;;;13.20;99.90;;;;;;5011067;28;20077;-80
2022/07/17 04:59:41;;;;;;;6.30;3.60;;;13.30;99.90;;;;;;5010932;28;20479;-81
2022/07/17 05:02:07;;;;;;;4.10;3.70;;;13.30;99.90;;;;;;5010136;28;20049;-80
2022/07/17 05:04:32;;;;;;;4.20;3.80;;;13.30;99.90;;;;;;5010939;28;20022;-82
2022/07/17 05:06:58;;;;;;;5.38;4.15;;;13.30;99.90;;;;;;5010892;28;20504;-82
2022/07/17 05:09:24;;;;;;;5.57;4.30;;;13.30;99.90;;;;;;5010986;28;20093;-81
2022/07/17 05:11:50;;;;;;;4.28;3.47;;;13.30;99.90;;;;;;4993339;28;20026;-80
2022/07/17 05:14:16;;;;;;;4.60;3.63;;;13.50;99.90;;;;;;5011229;28;20026;-83
2022/07/17 05:16:42;;;;;;;5.28;4.03;;;13.50;99.90;;;;;;5010412;28;20100;-83
2022/07/17 05:19:07;;;;;;;3.88;3.50;;;13.60;99.90;;;;;;5010968;28;20029;-80
2022/07/17 05:21:33;;;;;;;7.50;3.40;;;13.70;99.90;;;;;;5012153;28;20030;-82
2022/07/17 05:23:59;;;;;;;7.13;3.88;;;13.80;99.90;;;;;;5022432;28;20030;-83
2022/07/17 05:26:24;;;;;;;4.55;3.58;;;13.90;99.90;;;;;;5026151;28;20034;-80
2022/07/17 05:28:50;;;;;;;7.03;3.83;;;14.10;99.90;;;;;;5026474;28;20026;-81
2022/07/17 05:31:16;;;;;;;5.03;3.75;;;14.20;99.90;;;;;;5026290;28;20030;-81
2022/07/17 05:33:42;;;;;;;3.58;3.25;;;14.40;99.90;;;;;;5027205;28;20029;-82
2022/07/17 05:36:09;;;;;;;7.15;3.40;;;14.50;99.90;;;;;;5027186;28;20022;-82
2022/07/17 05:38:35;;;;;;;4.20;3.80;;;14.50;99.90;;;;;;5027940;28;20066;-82
2022/07/17 05:41:00;;;;;;;4.07;3.65;;;14.60;99.90;;;;;;5028080;28;20025;-82
2022/07/17 05:43:26;;;;;;;4.55;4.07;;;14.70;99.90;;;;;;5024022;28;20044;-80
2022/07/17 05:45:57;;;;;;;5.32;3.90;;;14.80;99.90;;;;;;5010341;28;20247;-82
2022/07/17 05:48:23;;;;;;;11.65;4.45;;;15.00;99.90;;;;;;5011692;28;20030;-82
2022/07/17 05:50:49;;;;;;;5.22;4.05;;;15.20;99.90;;;;;;5010234;28;20053;-83
2022/07/17 05:53:15;;;;;;;10.85;3.88;;;15.40;99.90;;;;;;5010470;28;20018;-82
2022/07/17 05:55:41;;;;;;;8.55;4.22;;;15.60;99.90;;;;;;4992840;28;20026;-83
2022/07/17 05:58:07;;;;;;;11.40;3.72;;;15.90;99.90;;;;;;5012070;28;20032;-83
2022/07/17 06:00:33;;;;;;;8.07;3.30;;;16.10;99.90;;;;;;5012661;28;20388;-80
2022/07/17 06:02:59;;;;;;;5.15;3.60;;;16.40;99.90;;;;;;5012850;28;20054;-80
2022/07/17 06:05:28;;;;;;;8.93;3.10;;;16.50;99.90;;;;;;5013932;28;20029;-83
2022/07/17 06:07:55;;;;;;;6.60;3.22;;;16.60;99.90;;;;;;5014490;28;20100;-83
2022/07/17 06:10:22;;;;;;;8.55;3.28;;;16.80;99.90;;;;;;4997711;28;20032;-82
2022/07/17 06:12:47;;;;;;;4.75;2.78;;;16.90;99.90;;;;;;5014344;28;20026;-84
2022/07/17 06:15:13;;;;;;;5.28;3.38;;;17.00;99.90;;;;;;5011918;28;20547;-82
2022/07/17 06:17:39;;;;;;;3.72;2.65;;;17.10;99.90;;;;;;5013967;28;20018;-82
2022/07/17 06:20:05;;;;;;;3.03;2.72;;;17.30;99.90;;;;;;4996031;28;20033;-82
2022/07/17 06:22:31;;;;;;;14.25;3.30;;;17.30;99.90;;;;;;4996320;28;20099;-84
2022/07/17 06:24:57;;;;;;;4.88;3.05;;;17.40;99.90;;;;;;5013609;28;20026;-80
2022/07/17 06:27:23;;;;;;;6.47;2.90;;;17.50;99.90;;;;;;5013475;28;20052;-83
2022/07/17 06:29:50;;;;;;;4.20;3.00;;;17.50;99.90;;;;;;5012711;28;20553;-84
2022/07/17 06:32:16;;;;;;;6.13;3.05;;;17.50;99.90;;;;;;5013779;28;20058;-81
2022/07/17 06:34:42;;;;;;;7.28;3.08;;;17.50;99.20;;;;;;5013231;28;20073;-82
2022/07/17 06:37:08;;;;;;;4.57;2.88;;;17.60;99.10;;;;;;4995699;28;20022;-81
2022/07/17 06:39:33;;;;;;;9.52;2.67;;;17.80;99.60;;;;;;4995589;28;20090;-81
2022/07/17 06:41:59;;;;;;;6.53;2.97;;;17.90;99.90;;;;;;5014536;28;20529;-83
2022/07/17 06:44:25;;;;;;;7.05;3.28;;;17.90;99.90;;;;;;5016454;28;20060;-82
2022/07/17 06:46:50;;;;;;;5.53;2.90;;;17.90;99.90;;;;;;5014260;28;21102;-83
2022/07/17 06:49:16;;;;;;;7.05;2.75;;;18.10;99.80;;;;;;5015512;28;20059;-83
2022/07/17 06:51:45;;;;;;;6.50;3.00;;;18.10;98.60;;;;;;5015558;28;20037;-83
2022/07/17 06:54:11;;;;;;;3.65;2.50;;;18.10;98.70;;;;;;5015472;28;20022;-83
2022/07/17 06:56:37;;;;;;;5.72;3.63;;;18.10;99.00;;;;;;5015652;28;20109;-84
2022/07/17 06:59:03;;;;;;;7.72;3.83;;;18.20;99.20;;;;;;5015763;28;20046;-81
2022/07/17 07:01:29;;;;;;;5.07;2.90;;;18.20;98.90;;;;;;5015139;28;20388;-81
2022/07/17 07:03:54;;;;;;;4.38;3.50;;;18.40;98.70;;;;;;5015185;28;20108;-83
2022/07/17 07:06:20;;;;;;;9.20;3.20;;;18.50;98.60;;;;;;5015357;28;20034;-82
2022/07/17 07:08:46;;;;;;;6.40;3.05;;;18.70;99.20;;;;;;5013553;28;20432;-82
2022/07/17 07:11:11;;;;;;;3.78;2.70;;;18.90;98.20;;;;;;5014661;28;20025;-83
2022/07/17 07:13:37;;;;;;;3.17;2.30;;;18.90;97.50;;;;;;5015413;28;20465;-82
2022/07/17 07:16:03;;;;;;;6.38;2.47;;;19.00;97.70;;;;;;5015013;28;20515;-81
2022/07/17 07:18:29;;;;;;;11.98;2.55;;;19.00;97.10;;;;;;5015005;28;20037;-84
2022/07/17 07:20:54;;;;;;;5.88;2.83;;;19.00;96.70;;;;;;5013695;28;20057;-83
2022/07/17 07:23:20;;;;;;;10.32;3.13;;;19.10;97.20;;;;;;5015009;28;20131;-82
2022/07/17 07:25:46;;;;;;;4.50;3.08;;;19.20;97.20;;;;;;5014721;28;20026;-82
2022/07/17 07:28:12;;;;;;;2.75;2.42;;;19.40;97.70;;;;;;5014843;28;20109;-82
2022/07/17 07:30:37;;;;;;;4.45;2.50;;;19.30;96.40;;;;;;5014902;28;20061;-84
2022/07/17 07:33:03;;;;;;;4.03;2.53;;;19.60;97.40;;;;;;5010630;28;20033;-83
2022/07/17 07:35:29;;;;;;;4.60;2.30;;;19.60;96.80;;;;;;5014895;28;20097;-84
2022/07/17 07:37:54;;;;;;;4.63;2.47;;;19.60;96.60;;;;;;4997042;28;20026;-83
2022/07/17 07:40:20;;;;;;;3.97;2.53;;;19.70;96.40;;;;;;5014686;28;20022;-84
2022/07/17 07:42:46;;;;;;;5.53;2.95;;;19.90;96.00;;;;;;5014602;28;20133;-81
2022/07/17 07:45:12;;;;;;;3.08;2.35;;;19.90;96.10;;;;;;5014732;28;20030;-84
2022/07/17 07:47:42;;;;;;;5.22;2.22;;;20.00;94.80;;;;;;5014431;28;20041;-82
2022/07/17 07:50:08;;;;;;;6.05;3.05;;;20.10;94.90;;;;;;5014817;28;20480;-83
2022/07/17 07:52:34;;;;;;;3.35;2.17;;;20.20;95.80;;;;;;5014499;28;20037;-82
2022/07/17 07:55:00;;;;;;;2.67;2.08;;;20.20;95.50;;;;;;5014634;28;20076;-83
2022/07/17 07:57:25;;;;;;;4.05;2.05;;;20.30;95.50;;;;;;4990164;28;20032;-81
2022/07/17 07:59:51;;;;;;;2.78;2.15;;;20.40;95.60;;;;;;5012991;28;20026;-83
2022/07/17 08:02:17;;;;;;;3.33;1.92;;;20.60;95.70;;;;;;5013982;28;20081;-82
2022/07/17 08:04:42;;;;;;;5.82;2.58;;;20.40;94.00;;;;;;5014599;28;20377;-83
2022/07/17 08:07:08;;;;;;;3.92;2.38;;;20.50;95.30;;;;;;5014333;28;20512;-83
2022/07/17 08:09:33;;;;;;;2.40;1.83;;;20.70;94.70;;;;;;5014349;28;20113;-83
2022/07/17 08:12:08;;;;;;;5.55;2.13;;;20.80;93.80;;;;;;5014209;28;20037;-83
2022/07/17 08:14:34;;;;;;;7.15;2.28;;;20.80;94.50;;;;;;5012988;28;20032;-84
2022/07/17 08:16:59;;;;;;;14.38;2.97;;;20.80;93.90;;;;;;5014084;28;20361;-82
2022/07/17 08:19:25;;;;;;;5.63;2.45;;;20.90;94.50;;;;;;5012425;28;20025;-85
2022/07/17 08:21:51;;;;;;;4.47;2.40;;;21.10;94.10;;;;;;5013384;28;20029;-83
2022/07/17 08:24:16;;;;;;;4.07;2.70;;;21.30;94.20;;;;;;5013726;28;20101;-85
2022/07/17 08:26:43;;;;;;;5.47;1.85;;;21.40;94.20;;;;;;5010667;28;20436;-84
2022/07/17 08:29:09;;;;;;;4.57;2.13;;;21.40;93.70;;;;;;5010836;28;20037;-84
2022/07/17 08:31:35;;;;;;;2.53;1.80;;;21.60;93.40;;;;;;5011232;28;20029;-83
2022/07/17 08:34:01;;;;;;;4.18;2.15;;;21.50;92.50;;;;;;5011516;28;20021;-83
2022/07/17 08:36:27;;;;;;;7.75;2.30;;;21.50;92.60;;;;;;5011339;28;20085;-81
2022/07/17 08:38:52;;;;;;;3.80;2.30;;;21.60;91.90;;;;;;5011078;28;20022;-82
2022/07/17 08:41:21;;;;;;;4.03;2.30;;;21.60;92.80;;;;;;5011212;28;20060;-83
2022/07/17 08:43:48;;;;;;;6.30;2.47;;;21.80;93.40;;;;;;5010640;28;20088;-83
2022/07/17 08:46:14;;;;;;;5.70;2.83;;;21.90;93.80;;;;;;5011251;28;20021;-84
2022/07/17 08:48:42;;;;;;;7.85;2.58;;;22.00;93.50;;;;;;4993624;28;20021;-84
2022/07/17 08:51:09;;;;;;;6.82;3.28;;;22.30;93.70;;;;;;5010950;28;20026;-81
2022/07/17 08:53:35;;;;;;;5.80;2.55;;;22.20;92.00;;;;;;4993483;28;20034;-85
2022/07/17 08:56:00;;;;;;;7.88;2.58;;;22.00;92.10;;;;;;5010615;28;20092;-81
2022/07/17 08:58:26;;;;;;;9.63;2.30;;;22.20;91.80;;;;;;5009770;28;20057;-82
2022/07/17 09:00:52;;;;;;;4.40;2.47;;;22.40;92.90;;;;;;5010662;28;20034;-84
2022/07/17 09:03:18;;;;;;;6.55;2.28;;;22.30;91.00;;;;;;5010862;28;20037;-85
2022/07/17 09:05:45;;;;;;;7.60;2.70;;;22.60;91.50;;;;;;5010651;28;20037;-81
2022/07/17 09:08:23;;;;;;;2.88;2.15;;;22.90;93.00;;;;;;5010800;28;20100;-82
2022/07/17 09:10:52;;;;;;;3.30;2.15;;;23.10;90.40;;;;;;4993246;28;20120;-82
2022/07/17 09:13:26;;;;;;;5.10;2.75;;;23.20;92.10;;;;;;5010246;28;20037;-83
2022/07/17 09:15:55;;;;;;;6.40;1.70;;;23.10;88.40;;;;;;4992904;28;20022;-83
2022/07/17 09:18:21;;;;;;;2.97;1.65;;;23.30;90.40;;;;;;5010908;28;20053;-84
2022/07/17 09:20:53;;;;;;;2.92;1.95;;;23.40;91.20;;;;;;5009184;28;20048;-82
2022/07/17 09:23:20;;;;;;;5.20;2.75;;;23.60;90.10;;;;;;5010931;28;20457;-84
2022/07/17 09:25:49;;;;;;;8.43;2.40;;;23.90;88.40;;;;;;5010618;28;20010;-85
2022/07/17 09:28:15;;;;;;;10.73;2.83;;;23.70;89.90;;;;;;5010034;28;20080;-84
2022/07/17 09:30:45;;;;;;;4.32;2.40;;;23.70;88.90;;;;;;4993044;28;20034;-84
2022/07/17 09:33:17;;;;;;;15.35;2.25;;;23.90;90.20;;;;;;5011357;28;20165;-85
2022/07/17 09:36:14;;;;;;;4.15;2.58;;;23.80;87.10;;;;;;5014530;28;20493;-82
2022/07/17 09:38:42;;;;;;;6.93;2.17;;;23.90;90.10;;;;;;4996391;28;20065;-82
2022/07/17 09:41:09;;;;;;;6.10;2.17;;;23.90;91.10;;;;;;5013781;28;20041;-84
2022/07/17 09:43:44;;;;;;;11.13;2.50;;;24.20;89.80;;;;;;5017083;28;20029;-83
2022/07/17 09:46:14;;;;;;;9.73;2.40;;;24.40;83.10;;;;;;5014799;28;20109;-84
2022/07/17 09:48:46;;;;;;;4.97;2.10;;;24.70;83.60;;;;;;5013815;28;20092;-82
2022/07/17 09:51:32;;;;;;;6.35;1.75;;;24.90;84.10;;;;;;5014147;28;20394;-84
2022/07/17 09:54:00;;;;;;;8.80;2.55;;;24.70;85.50;;;;;;4995876;28;20045;-84
2022/07/17 09:56:28;;;;;;;3.65;2.40;;;24.90;83.30;;;;;;4996533;28;20018;-82
2022/07/17 09:59:12;;;;;;;1.85;1.73;;;24.90;77.50;;;;;;4996069;28;20057;-81
2022/07/17 10:01:43;;;;;;;6.18;1.75;;;25.00;76.10;;;;;;5013191;28;20193;-82
2022/07/17 10:04:10;;;;;;;4.57;2.20;;;25.10;79.30;;;;;;5013972;28;20515;-82
2022/07/17 10:06:36;;;;;;;2.63;1.80;;;25.40;78.60;;;;;;5013814;28;20381;-84
2022/07/17 10:09:02;;;;;;;4.90;2.08;;;25.80;78.70;;;;;;5013982;28;20022;-82
2022/07/17 10:11:30;;;;;;;6.57;2.10;;;25.90;72.20;;;;;;5013880;28;20982;-84
2022/07/17 10:14:01;;;;;;;5.45;1.98;;;25.70;71.80;;;;;;5013608;28;20018;-81
2022/07/17 10:16:29;;;;;;;7.93;2.60;;;25.70;69.80;;;;;;4995810;28;20528;-82
2022/07/17 10:18:57;;;;;;;3.70;2.00;;;26.10;77.40;;;;;;5013616;28;20036;-83
2022/07/17 10:21:24;;;;;;;2.80;1.90;;;26.20;72.80;;;;;;5013624;28;20077;-82
2022/07/17 10:23:53;;;;;;;5.10;2.65;;;26.20;69.00;;;;;;4995846;28;20116;-84
2022/07/17 10:26:34;;;;;;;7.68;1.80;;;26.20;70.80;;;;;;5013680;28;20481;-83
2022/07/17 10:29:00;;;;;;;6.60;1.83;;;26.10;71.60;;;;;;5013228;28;20106;-84
2022/07/17 10:31:28;;;;;;;5.50;1.85;;;26.40;70.90;;;;;;4995808;28;20018;-83
2022/07/17 10:33:58;;;;;;;3.15;2.10;;;26.40;67.20;;;;;;4995789;28;20377;-83
2022/07/17 10:36:42;;;;;;;5.90;2.22;;;25.80;65.80;;;;;;5013714;28;20105;-85
2022/07/17 10:39:15;;;;;;;2.97;2.05;;;25.60;64.80;;;;;;5013521;28;20112;-84
2022/07/17 10:41:42;;;;;;;4.97;2.28;;;25.40;64.70;;;;;;5013412;28;20077;-82
2022/07/17 10:44:08;;;;;;;5.00;1.92;;;25.60;68.60;;;;;;5011104;28;20030;-84
2022/07/17 10:46:35;;;;;;;2.63;1.83;;;26.00;68.40;;;;;;5011300;28;20401;-82
2022/07/17 10:49:07;;;;;;;5.35;1.60;;;26.00;71.10;;;;;;5013276;28;20026;-82
2022/07/17 10:51:35;;;;;;;5.80;2.03;;;26.20;70.70;;;;;;5012903;28;20018;-82
2022/07/17 10:54:01;;;;;;;3.00;1.90;;;26.30;68.30;;;;;;4995295;28;20432;-83
2022/07/17 10:56:27;;;;;;;2.53;1.80;;;26.70;69.40;;;;;;5013427;28;20022;-84
2022/07/17 10:59:00;;;;;;;6.43;1.90;;;26.70;66.90;;;;;;5012874;28;20473;-84
2022/07/17 11:01:25;;;;;;;3.55;1.75;;;26.80;65.70;;;;;;5004627;28;20525;-83
2022/07/17 11:03:57;;;;;;;5.15;2.30;;;26.70;62.60;;;;;;5005983;28;20041;-83
2022/07/17 11:06:25;;;;;;;3.00;2.05;;;26.80;63.10;;;;;;5012601;28;20057;-82
2022/07/17 11:09:11;;;;;;;3.47;1.60;;;26.90;65.10;;;;;;5012468;28;20026;-81
2022/07/17 11:11:44;;;;;;;5.38;1.70;;;27.00;64.50;;;;;;5012376;28;20543;-82
2022/07/17 11:14:22;;;;;;;16.20;1.85;;;27.00;65.00;;;;;;5012860;28;20026;-83
2022/07/17 11:16:52;;;;;;;4.22;1.70;;;26.60;62.40;;;;;;5012603;28;20057;-85
2022/07/17 11:19:31;;;;;;;9.13;1.85;;;26.70;62.80;;;;;;4996761;28;20114;-82
2022/07/17 11:21:59;;;;;;;2.92;1.90;;;26.80;63.90;;;;;;5012667;28;20511;-82
2022/07/17 11:24:26;;;;;;;4.82;2.25;;;27.10;61.50;;;;;;4994868;28;20036;-82
2022/07/17 11:26:52;;;;;;;2.38;1.73;;;27.00;62.00;;;;;;5007577;28;20038;-81
2022/07/17 11:29:18;;;;;;;4.63;2.13;;;27.00;60.10;;;;;;5001942;28;20041;-83
2022/07/17 11:31:44;;;;;;;11.43;1.83;;;27.60;61.90;;;;;;4979702;28;20421;-83
2022/07/17 11:34:11;;;;;;;2.55;1.67;;;27.40;61.10;;;;;;5000375;28;20029;-82
2022/07/17 11:36:43;;;;;;;9.75;1.92;;;27.60;63.50;;;;;;5002152;28;20061;-85
2022/07/17 11:39:11;;;;;;;3.33;2.13;;;27.60;64.00;;;;;;4991630;28;20568;-84
2022/07/17 11:41:46;;;;;;;3.65;1.85;;;27.60;63.30;;;;;;5006761;28;20029;-84
2022/07/17 11:44:19;;;;;;;3.38;2.15;;;27.40;59.10;;;;;;5014457;28;20025;-82
2022/07/17 11:46:48;;;;;;;4.70;1.52;;;27.40;63.60;;;;;;5020938;28;20022;-82
2022/07/17 11:49:25;;;;;;;4.85;1.80;;;27.40;60.70;;;;;;5004625;28;20033;-81
2022/07/17 11:51:51;;;;;;;2.45;1.60;;;28.00;62.00;;;;;;5019504;28;20026;-82
2022/07/17 11:54:17;;;;;;;5.53;2.38;;;27.70;57.90;;;;;;5022964;28;20090;-81
2022/07/17 11:56:52;;;;;;;5.47;1.70;;;27.80;58.60;;;;;;5012212;28;20072;-84
2022/07/17 11:59:25;;;;;;;10.25;1.55;;;27.70;57.90;;;;;;5000649;28;20493;-82
2022/07/17 12:01:51;;;;;;;7.53;1.70;;;28.20;62.10;;;;;;5007890;28;20076;-82
2022/07/17 12:04:17;;;;;;;19.67;2.90;;;28.40;58.60;;;;;;5003668;28;20485;-83
2022/07/17 12:06:44;;;;;;;12.07;1.80;;;28.00;55.70;;;;;;4981064;28;20034;-84
2022/07/17 12:09:10;;;;;;;47.28;5.05;;;28.10;58.00;;;;;;4973548;28;20141;-82
2022/07/17 12:11:47;;;;;;;6.07;1.73;;;28.60;56.40;;;;;;5003540;28;20036;-84
2022/07/17 12:14:13;;;;;;;3.30;1.80;;;28.90;52.90;;;;;;4973483;28;21963;-83
2022/07/17 12:16:39;;;;;;;1.70;1.38;;;29.50;54.50;;;;;;5000821;28;20030;-85
2022/07/17 12:19:14;;;;;;;6.57;1.90;;;30.10;53.40;;;;;;4981751;28;20029;-85
2022/07/17 12:21:50;;;;;;;6.38;1.30;;;30.50;49.20;;;;;;5003297;28;20044;-84
2022/07/17 12:24:26;;;;;;;7.85;1.58;;;31.10;52.90;;;;;;5003234;28;20057;-84
2022/07/17 12:26:53;;;;;;;5.13;1.48;;;31.90;50.50;;;;;;5001504;28;20109;-83
2022/07/17 12:29:19;;;;;;;4.80;1.77;;;31.90;49.90;;;;;;5006880;28;20030;-82
2022/07/17 12:31:45;;;;;;;2.40;1.25;;;32.40;48.70;;;;;;5002971;28;20025;-81
2022/07/17 12:34:11;;;;;;;2.90;1.58;;;32.40;48.80;;;;;;4988141;28;20034;-83
2022/07/17 12:36:37;;;;;;;5.47;1.20;;;32.40;49.60;;;;;;5003208;28;20107;-81
2022/07/17 12:39:03;;;;;;;7.78;1.45;;;32.90;46.30;;;;;;4979394;28;20116;-83
2022/07/17 12:41:29;;;;;;;2.90;1.52;;;32.50;48.40;;;;;;5003465;28;20335;-84
2022/07/17 12:43:55;;;;;;;4.63;1.33;;;33.10;45.00;;;;;;4981648;28;20029;-84
2022/07/17 12:46:20;;;;;;;7.18;1.38;;;33.90;48.50;;;;;;4992668;28;20033;-84